createdAt,value
2023-01-18T00:01:05.373Z,99255.16
2023-01-18T00:03:33.860Z,99252.34
2023-01-18T00:06:02.264Z,99250.53
2023-01-18T00:08:30.671Z,99243.28
2023-01-18T00:11:12.663Z,99235.97
2023-01-18T00:13:40.055Z,99239.63
2023-01-18T00:16:11.413Z,99240.31
2023-01-18T00:18:38.482Z,99220.88
2023-01-18T00:21:08.760Z,99223.81
2023-01-18T00:23:36.685Z,99223.09
2023-01-18T00:26:09.231Z,99207.31
2023-01-18T00:28:36.836Z,99211.91
2023-01-18T00:31:15.714Z,99201.28
2023-01-18T00:33:45.977Z,99192.63
2023-01-18T00:36:14.670Z,99186.69
2023-01-18T00:38:41.987Z,99190.59
2023-01-18T00:41:09.125Z,99181.53
2023-01-18T00:43:39.271Z,99193.38
2023-01-18T00:46:08.312Z,99183.03
2023-01-18T00:48:35.970Z,99196.34
2023-01-18T00:51:03.174Z,99172.69
2023-01-18T00:53:30.361Z,99178.28
2023-01-18T00:55:57.256Z,99181.34
2023-01-18T00:58:24.233Z,99171.31
2023-01-18T01:00:53.011Z,99157.28
2023-01-18T01:03:21.108Z,99150.03
2023-01-18T01:06:06.758Z,99147.50
2023-01-18T01:08:34.128Z,99153.91
2023-01-18T01:11:12.375Z,99139.22
2023-01-18T01:13:57.837Z,99154.75
2023-01-18T01:16:43.668Z,99143.44
2023-01-18T01:19:29.229Z,99137.41
2023-01-18T01:22:14.893Z,99137.94
2023-01-18T01:25:00.580Z,99144.69
2023-01-18T01:27:27.623Z,99164.22
2023-01-18T01:29:54.529Z,99165.94
2023-01-18T01:32:21.603Z,99167.00
2023-01-18T01:34:53.172Z,99170.38
2023-01-18T01:37:20.224Z,99172.34
2023-01-18T01:39:47.126Z,99190.19
2023-01-18T01:42:14.106Z,99194.97
2023-01-18T01:44:45.499Z,99179.88
2023-01-18T01:47:41.391Z,99187.53
2023-01-18T01:50:17.457Z,99196.09
2023-01-18T01:52:47.547Z,99188.53
2023-01-18T01:55:29.577Z,99189.59
2023-01-18T01:58:11.228Z,99193.81
2023-01-18T02:00:38.234Z,99192.25
2023-01-18T02:03:10.946Z,99184.28
2023-01-18T02:05:47.672Z,99172.84
2023-01-18T02:08:22.760Z,99177.06
2023-01-18T02:10:51.434Z,99178.75
2023-01-18T02:13:21.151Z,99171.75
2023-01-18T02:16:19.037Z,99168.13
2023-01-18T02:19:18.509Z,99170.06
2023-01-18T02:22:27.134Z,99166.97
2023-01-18T02:25:16.928Z,99177.84
2023-01-18T02:27:50.586Z,99177.41
2023-01-18T02:30:31.069Z,99177.53
2023-01-18T02:33:33.017Z,99178.38
2023-01-18T02:36:05.825Z,99172.34
2023-01-18T02:38:45.082Z,99182.28
2023-01-18T02:41:21.073Z,99183.38
2023-01-18T02:44:10.062Z,99182.81
2023-01-18T02:46:38.985Z,99179.44
2023-01-18T02:49:18.398Z,99186.44
2023-01-18T02:51:45.277Z,99184.91
2023-01-18T02:54:13.300Z,99182.66
2023-01-18T02:56:47.350Z,99182.66
2023-01-18T02:59:50.752Z,99180.94
2023-01-18T03:02:21.064Z,99181.47
2023-01-18T03:04:56.618Z,99175.19
2023-01-18T03:07:29.245Z,99183.16
2023-01-18T03:09:58.654Z,99171.81
2023-01-18T03:12:46.627Z,99177.97
2023-01-18T03:15:44.474Z,99171.53
2023-01-18T03:18:16.744Z,99180.56
2023-01-18T03:20:49.922Z,99170.69
2023-01-18T03:23:41.378Z,99183.00
2023-01-18T03:26:09.825Z,99173.34
2023-01-18T03:28:59.078Z,99166.22
2023-01-18T03:32:14.065Z,99174.88
2023-01-18T03:34:53.740Z,99163.00
2023-01-18T03:37:33.798Z,99165.38
2023-01-18T03:40:11.306Z,99164.81
2023-01-18T03:42:48.530Z,99166.63
2023-01-18T03:45:30.810Z,99165.91
2023-01-18T03:47:58.146Z,99176.22
2023-01-18T03:50:33.392Z,99180.22
2023-01-18T03:53:10.017Z,99183.13
2023-01-18T03:56:04.901Z,99204.03
2023-01-18T03:58:36.072Z,99209.66
2023-01-18T04:01:05.225Z,99211.09
2023-01-18T04:03:33.389Z,99211.34
2023-01-18T04:06:03.404Z,99234.25
2023-01-18T04:08:30.363Z,99231.13
2023-01-18T04:10:57.289Z,99226.00
2023-01-18T04:13:24.348Z,99234.91
2023-01-18T04:15:51.360Z,99238.13
2023-01-18T04:18:18.393Z,99244.34
2023-01-18T04:20:45.307Z,99237.94
2023-01-18T04:23:12.389Z,99236.84
2023-01-18T04:25:41.133Z,99235.47
2023-01-18T04:28:08.362Z,99245.00
2023-01-18T04:30:35.314Z,99233.81
2023-01-18T04:33:02.399Z,99225.69
2023-01-18T04:35:29.431Z,99230.75
2023-01-18T04:37:56.380Z,99232.44
2023-01-18T04:40:23.229Z,99231.72
2023-01-18T04:42:54.434Z,99235.03
2023-01-18T04:45:21.711Z,99243.56
2023-01-18T04:47:48.801Z,99235.59
2023-01-18T04:50:16.080Z,99239.94
2023-01-18T04:52:43.184Z,99235.47
2023-01-18T04:55:16.002Z,99245.25
2023-01-18T04:57:44.151Z,99248.88
2023-01-18T05:00:13.444Z,99241.88
2023-01-18T05:02:40.574Z,99243.97
2023-01-18T05:05:08.878Z,99233.47
2023-01-18T05:07:35.885Z,99242.16
2023-01-18T05:10:04.320Z,99247.56
2023-01-18T05:12:31.283Z,99242.38
2023-01-18T05:14:58.249Z,99249.66
2023-01-18T05:17:30.677Z,99245.81
2023-01-18T05:19:57.588Z,99244.00
2023-01-18T05:22:24.551Z,99246.78
2023-01-18T05:24:51.577Z,99237.66
2023-01-18T05:27:18.604Z,99243.94
2023-01-18T05:29:48.403Z,99235.97
2023-01-18T05:32:15.431Z,99246.84
2023-01-18T05:34:42.617Z,99252.16
2023-01-18T05:37:10.301Z,99234.81
2023-01-18T05:39:37.821Z,99249.06
2023-01-18T05:42:05.807Z,99252.66
2023-01-18T05:44:33.273Z,99258.34
2023-01-18T05:47:00.363Z,99266.69
2023-01-18T05:49:29.210Z,99268.38
2023-01-18T05:51:56.714Z,99268.88
2023-01-18T05:54:23.752Z,99279.75
2023-01-18T05:56:50.763Z,99285.03
2023-01-18T05:59:17.720Z,99283.94
2023-01-18T06:01:44.685Z,99288.50
2023-01-18T06:04:11.705Z,99295.88
2023-01-18T06:06:38.620Z,99297.56
2023-01-18T06:09:05.618Z,99299.25
2023-01-18T06:11:32.635Z,99305.78
2023-01-18T06:13:59.823Z,99308.81
2023-01-18T06:16:27.194Z,99309.50
2023-01-18T06:18:54.125Z,99319.63
2023-01-18T06:21:21.503Z,99322.16
2023-01-18T06:23:48.406Z,99326.34
2023-01-18T06:26:15.417Z,99324.56
2023-01-18T06:28:42.317Z,99333.34
2023-01-18T06:31:10.598Z,99330.81
2023-01-18T06:33:37.820Z,99343.97
2023-01-18T06:36:06.058Z,99354.56
2023-01-18T06:38:33.138Z,99364.81
2023-01-18T06:41:00.163Z,99361.69
2023-01-18T06:43:27.179Z,99358.19
2023-01-18T06:45:57.830Z,99375.66
2023-01-18T06:48:26.798Z,99379.28
2023-01-18T06:50:57.412Z,99381.94
2023-01-18T06:53:24.730Z,99378.81
2023-01-18T06:55:58.580Z,99380.03
2023-01-18T06:58:35.291Z,99376.63
2023-01-18T07:01:03.078Z,99384.59
2023-01-18T07:03:31.768Z,99376.84
2023-01-18T07:06:00.542Z,99382.16
2023-01-18T07:08:31.005Z,99390.22
2023-01-18T07:10:59.565Z,99396.38
2023-01-18T07:13:27.254Z,99404.09
2023-01-18T07:15:57.976Z,99410.84
2023-01-18T07:18:26.659Z,99399.97
2023-01-18T07:21:07.212Z,99392.16
2023-01-18T07:23:36.436Z,99398.06
2023-01-18T07:26:05.655Z,99398.22
2023-01-18T07:28:33.781Z,99386.97
2023-01-18T07:31:01.289Z,99393.81
2023-01-18T07:33:28.833Z,99405.94
2023-01-18T07:35:57.276Z,99398.72
2023-01-18T07:38:25.231Z,99404.28
2023-01-18T07:41:02.420Z,99420.44
2023-01-18T07:43:30.837Z,99425.50
2023-01-18T07:46:00.921Z,99435.00
2023-01-18T07:48:29.011Z,99430.03
2023-01-18T07:50:58.044Z,99446.00
2023-01-18T07:53:26.239Z,99446.22
2023-01-18T07:55:54.218Z,99442.97
2023-01-18T07:58:21.724Z,99432.97
2023-01-18T08:00:48.665Z,99441.69
2023-01-18T08:03:17.333Z,99439.94
2023-01-18T08:05:45.217Z,99462.47
2023-01-18T08:08:17.707Z,99446.69
2023-01-18T08:10:45.089Z,99453.97
2023-01-18T08:13:12.191Z,99462.34
2023-01-18T08:15:40.880Z,99463.94
2023-01-18T08:18:09.051Z,99462.56
2023-01-18T08:20:36.347Z,99467.03
2023-01-18T08:23:04.195Z,99471.81
2023-01-18T08:25:33.696Z,99472.53
2023-01-18T08:28:02.082Z,99485.22
2023-01-18T08:30:35.179Z,99475.69
2023-01-18T08:33:03.328Z,99471.63
2023-01-18T08:35:33.266Z,99470.88
2023-01-18T08:38:01.239Z,99484.28
2023-01-18T08:40:28.988Z,99478.53
2023-01-18T08:42:59.809Z,99489.63
2023-01-18T08:45:31.134Z,99487.94
2023-01-18T08:48:02.536Z,99511.72
2023-01-18T08:50:33.660Z,99509.59
2023-01-18T08:53:01.167Z,99499.88
2023-01-18T08:55:29.908Z,99506.75
2023-01-18T08:57:59.222Z,99517.88
2023-01-18T09:00:30.313Z,99519.78
2023-01-18T09:02:58.497Z,99524.59
2023-01-18T09:05:27.275Z,99530.38
2023-01-18T09:07:55.728Z,99545.41
2023-01-18T09:10:22.916Z,99549.13
2023-01-18T09:12:52.758Z,99547.69
2023-01-18T09:15:20.692Z,99550.78
2023-01-18T09:17:47.552Z,99548.97
2023-01-18T09:20:16.586Z,99558.81
2023-01-18T09:22:47.990Z,99549.25
2023-01-18T09:25:15.551Z,99552.75
2023-01-18T09:27:42.707Z,99557.22
2023-01-18T09:30:10.221Z,99566.13
2023-01-18T09:32:37.211Z,99570.69
2023-01-18T09:35:06.133Z,99574.78
2023-01-18T09:37:33.015Z,99574.03
2023-01-18T09:40:00.545Z,99574.75
2023-01-18T09:42:41.079Z,99573.81
2023-01-18T09:45:24.895Z,99585.28
2023-01-18T09:47:55.475Z,99595.44
2023-01-18T09:50:22.745Z,99589.41
2023-01-18T09:52:59.290Z,99584.16
2023-01-18T09:55:54.174Z,99583.81
2023-01-18T09:58:50.896Z,99583.56
2023-01-18T10:01:22.119Z,99574.59
2023-01-18T10:04:00.914Z,99594.25
2023-01-18T10:06:32.771Z,99595.19
2023-01-18T10:09:07.076Z,99609.22
2023-01-18T10:11:47.464Z,99610.97
2023-01-18T10:14:24.343Z,99619.56
2023-01-18T10:16:58.259Z,99628.81
2023-01-18T10:19:30.553Z,99626.31
2023-01-18T10:22:12.620Z,99642.41
2023-01-18T10:24:45.536Z,99655.66
2023-01-18T10:27:40.742Z,99660.84
2023-01-18T10:30:15.403Z,99669.28
2023-01-18T10:32:50.889Z,99673.19
2023-01-18T10:35:26.417Z,99683.19
2023-01-18T10:37:57.759Z,99685.31
2023-01-18T10:40:25.068Z,99687.94
2023-01-18T10:42:56.922Z,99701.19
2023-01-18T10:45:29.924Z,99702.25
2023-01-18T10:47:59.654Z,99694.72
2023-01-18T10:50:26.426Z,99701.94
2023-01-18T10:52:53.340Z,99714.84
2023-01-18T10:55:21.151Z,99711.75
2023-01-18T10:57:54.392Z,99721.31
2023-01-18T11:00:34.785Z,99717.81
2023-01-18T11:03:05.204Z,99715.59
2023-01-18T11:05:40.107Z,99724.09
2023-01-18T11:08:12.989Z,99728.00
2023-01-18T11:10:41.601Z,99729.38
2023-01-18T11:13:47.246Z,99733.34
2023-01-18T11:16:18.321Z,99733.78
2023-01-18T11:18:59.463Z,99720.81
2023-01-18T11:21:33.097Z,99735.41
2023-01-18T11:24:07.780Z,99730.50
2023-01-18T11:26:34.725Z,99724.59
2023-01-18T11:29:07.158Z,99727.06
2023-01-18T11:31:46.629Z,99721.25
2023-01-18T11:34:35.506Z,99727.91
2023-01-18T11:37:04.104Z,99729.81
2023-01-18T11:39:30.973Z,99736.34
2023-01-18T11:42:26.019Z,99743.56
2023-01-18T11:45:25.181Z,99743.31
2023-01-18T11:48:09.908Z,99742.84
2023-01-18T11:50:57.285Z,99755.28
2023-01-18T11:53:43.763Z,99752.41
2023-01-18T11:56:19.475Z,99754.13
2023-01-18T11:58:47.208Z,99753.03
2023-01-18T12:01:57.616Z,99755.22
2023-01-18T12:04:43.961Z,99752.41
2023-01-18T12:08:08.274Z,99759.81
2023-01-18T12:11:14.507Z,99753.91
2023-01-18T12:13:47.476Z,99751.97
2023-01-18T12:16:22.398Z,99762.25
2023-01-18T12:19:01.719Z,99759.56
2023-01-18T12:21:37.806Z,99770.41
2023-01-18T12:24:16.315Z,99764.53
2023-01-18T12:26:48.222Z,99764.38
2023-01-18T12:29:50.432Z,99772.50
2023-01-18T12:32:48.501Z,99776.72
2023-01-18T12:35:48.796Z,99780.22
2023-01-18T12:38:31.808Z,99773.66
2023-01-18T12:41:05.009Z,99782.06
2023-01-18T12:43:54.573Z,99780.22
2023-01-18T12:46:36.888Z,99781.50
2023-01-18T12:49:18.935Z,99794.25
2023-01-18T12:51:51.020Z,99793.56
2023-01-18T12:54:41.763Z,99796.41
2023-01-18T12:57:09.268Z,99796.88
2023-01-18T12:59:43.582Z,99796.16
2023-01-18T13:02:38.243Z,99805.41
2023-01-18T13:05:43.262Z,99812.41
2023-01-18T13:08:21.274Z,99808.75
2023-01-18T13:10:48.768Z,99815.22
2023-01-18T13:13:21.482Z,99819.88
2023-01-18T13:16:09.926Z,99822.16
2023-01-18T13:18:57.182Z,99827.88
2023-01-18T13:21:27.306Z,99833.69
2023-01-18T13:24:12.994Z,99838.78
2023-01-18T13:26:40.339Z,99833.19
2023-01-18T13:29:10.344Z,99839.41
2023-01-18T13:31:38.209Z,99832.34
2023-01-18T13:34:17.815Z,99844.22
2023-01-18T13:36:46.642Z,99849.75
2023-01-18T13:39:19.387Z,99847.91
2023-01-18T13:42:04.943Z,99853.09
2023-01-18T13:44:46.016Z,99857.72
2023-01-18T13:47:45.893Z,99863.22
2023-01-18T13:50:40.185Z,99874.84
2023-01-18T13:53:13.513Z,99872.56
2023-01-18T13:55:55.566Z,99872.94
2023-01-18T13:58:30.425Z,99885.13
2023-01-18T14:01:03.454Z,99883.66
2023-01-18T14:03:38.769Z,99892.63
2023-01-18T14:06:10.411Z,99893.31
2023-01-18T14:08:47.838Z,99897.91
2023-01-18T14:11:27.730Z,99900.13
2023-01-18T14:13:55.419Z,99906.88
2023-01-18T14:16:32.282Z,99906.25
2023-01-18T14:19:21.964Z,99914.47
2023-01-18T14:21:56.031Z,99913.91
2023-01-18T14:24:58.839Z,99918.00
2023-01-18T14:27:32.872Z,99922.97
2023-01-18T14:30:05.303Z,99918.16
2023-01-18T14:32:37.915Z,99920.28
2023-01-18T14:35:25.956Z,99929.72
2023-01-18T14:38:16.712Z,99920.25
2023-01-18T14:40:50.454Z,99931.22
2023-01-18T14:43:29.376Z,99925.28
2023-01-18T14:46:03.875Z,99930.00
2023-01-18T14:48:35.059Z,99940.72
2023-01-18T14:51:02.601Z,99943.00
2023-01-18T14:53:38.730Z,99938.13
2023-01-18T14:56:14.849Z,99944.09
2023-01-18T14:59:05.851Z,99938.81
2023-01-18T15:01:39.041Z,99950.38
2023-01-18T15:04:19.670Z,99949.78
2023-01-18T15:07:14.373Z,99943.72
2023-01-18T15:09:43.183Z,99949.84
2023-01-18T15:12:14.064Z,99949.59
2023-01-18T15:14:50.740Z,99956.03
2023-01-18T15:17:24.721Z,99943.41
2023-01-18T15:20:08.214Z,99956.94
2023-01-18T15:22:40.705Z,99958.63
2023-01-18T15:25:18.902Z,99964.00
2023-01-18T15:27:53.022Z,99964.00
2023-01-18T15:30:24.955Z,99967.38
2023-01-18T15:33:02.318Z,99966.66
2023-01-18T15:38:05.134Z,99972.53
2023-01-18T15:40:35.939Z,99973.97
2023-01-18T15:43:29.625Z,99975.53
2023-01-18T15:45:58.348Z,99980.63
2023-01-18T15:48:28.195Z,99982.25
2023-01-18T15:50:57.340Z,99991.00
2023-01-18T15:53:27.233Z,99998.63
2023-01-18T15:56:03.459Z,99996.69
2023-01-18T15:58:46.085Z,99998.44
2023-01-18T16:01:13.029Z,100015.75
2023-01-18T16:03:49.004Z,100018.31
2023-01-18T16:06:34.685Z,100026.03
2023-01-18T16:09:12.685Z,100041.13
2023-01-18T16:11:53.288Z,100041.03
2023-01-18T16:14:29.331Z,100041.34
2023-01-18T16:16:59.637Z,100043.16
2023-01-18T16:19:31.949Z,100048.09
2023-01-18T16:22:17.727Z,100050.34
2023-01-18T16:24:51.061Z,100052.88
2023-01-18T16:27:28.085Z,100064.41
2023-01-18T16:30:00.567Z,100065.25
2023-01-18T16:32:29.987Z,100067.06
2023-01-18T16:35:03.737Z,100067.75
2023-01-18T16:37:31.445Z,100071.25
2023-01-18T16:39:58.644Z,100084.31
2023-01-18T16:42:37.085Z,100088.78
2023-01-18T16:45:05.913Z,100093.97
2023-01-18T16:47:33.545Z,100102.78
2023-01-18T16:50:00.605Z,100093.75
2023-01-18T16:52:27.536Z,100092.72
2023-01-18T16:54:57.759Z,100103.94
2023-01-18T16:57:24.845Z,100104.28
2023-01-18T16:59:52.193Z,100101.75
2023-01-18T17:02:19.433Z,100106.91
2023-01-18T17:04:46.739Z,100123.31
2023-01-18T17:07:13.879Z,100136.72
2023-01-18T17:09:48.694Z,100132.16
2023-01-18T17:12:16.794Z,100134.88
2023-01-18T17:14:44.086Z,100139.28
2023-01-18T17:17:14.173Z,100154.69
2023-01-18T17:19:44.016Z,100144.41
2023-01-18T17:22:11.390Z,100152.41
2023-01-18T17:24:38.256Z,100159.25
2023-01-18T17:27:05.142Z,100160.22
2023-01-18T17:29:32.235Z,100169.94
2023-01-18T17:31:59.554Z,100168.72
2023-01-18T17:34:29.091Z,100176.72
2023-01-18T17:36:58.408Z,100174.56
2023-01-18T17:39:37.005Z,100182.56
2023-01-18T17:42:14.239Z,100188.72
2023-01-18T17:44:43.542Z,100191.78
2023-01-18T17:47:10.687Z,100191.78
2023-01-18T17:49:37.774Z,100181.09
2023-01-18T17:52:05.006Z,100192.25
2023-01-18T17:54:34.027Z,100195.66
2023-01-18T17:57:01.626Z,100199.28
2023-01-18T17:59:29.393Z,100204.13
2023-01-18T18:01:56.318Z,100221.09
2023-01-18T18:04:23.349Z,100224.00
2023-01-18T18:06:54.274Z,100221.56
2023-01-18T18:09:21.638Z,100208.75
2023-01-18T18:11:48.838Z,100222.28
2023-01-18T18:14:16.651Z,100241.19
2023-01-18T18:16:44.305Z,100229.31
2023-01-18T18:19:15.054Z,100236.31
2023-01-18T18:21:43.121Z,100225.19
2023-01-18T18:24:10.201Z,100259.56
2023-01-18T18:26:37.303Z,100257.63
2023-01-18T18:29:04.954Z,100255.69
2023-01-18T18:31:31.971Z,100273.38
2023-01-18T18:33:59.103Z,100279.31
2023-01-18T18:36:27.495Z,100272.91
2023-01-18T18:39:01.056Z,100278.44
2023-01-18T18:41:28.072Z,100275.03
2023-01-18T18:43:54.977Z,100284.00
2023-01-18T18:46:22.078Z,100298.72
2023-01-18T18:48:49.743Z,100300.28
2023-01-18T18:51:16.669Z,100296.44
2023-01-18T18:53:44.001Z,100289.75
2023-01-18T18:56:10.950Z,100300.16
2023-01-18T18:58:38.975Z,100301.88
2023-01-18T19:01:06.883Z,100307.91
2023-01-18T19:03:43.913Z,100305.94
2023-01-18T19:06:11.686Z,100330.50
2023-01-18T19:08:38.603Z,100314.00
2023-01-18T19:11:05.622Z,100308.97
2023-01-18T19:13:32.642Z,100317.72
2023-01-18T19:15:59.710Z,100305.28
2023-01-18T19:18:26.967Z,100311.59
2023-01-18T19:20:54.035Z,100314.72
2023-01-18T19:23:21.124Z,100321.94
2023-01-18T19:25:49.171Z,100335.97
2023-01-18T19:28:17.095Z,100340.88
2023-01-18T19:30:44.598Z,100333.03
2023-01-18T19:33:13.348Z,100342.66
2023-01-18T19:35:43.070Z,100334.22
2023-01-18T19:38:10.297Z,100340.19
2023-01-18T19:40:37.532Z,100344.94
2023-01-18T19:43:04.410Z,100346.66
2023-01-18T19:45:32.112Z,100335.84
2023-01-18T19:48:01.382Z,100351.44
2023-01-18T19:50:29.827Z,100352.06
2023-01-18T19:52:57.651Z,100359.22
2023-01-18T19:55:25.255Z,100354.13
2023-01-18T19:57:56.547Z,100362.00
2023-01-18T20:00:26.592Z,100362.84
2023-01-18T20:02:53.673Z,100360.91
2023-01-18T20:05:20.765Z,100355.59
2023-01-18T20:07:48.083Z,100359.00
2023-01-18T20:10:20.202Z,100358.09
2023-01-18T20:12:48.743Z,100357.53
2023-01-18T20:15:17.667Z,100357.53
2023-01-18T20:17:45.176Z,100365.16
2023-01-18T20:20:18.237Z,100372.09
2023-01-18T20:22:48.563Z,100376.69
2023-01-18T20:25:15.741Z,100379.41
2023-01-18T20:27:42.840Z,100382.41
2023-01-18T20:30:10.697Z,100392.66
2023-01-18T20:32:41.490Z,100401.53
2023-01-18T20:35:12.005Z,100409.94
2023-01-18T20:37:39.234Z,100398.59
2023-01-18T20:40:06.713Z,100395.06
2023-01-18T20:42:33.847Z,100404.09
2023-01-18T20:45:01.758Z,100399.72
2023-01-18T20:47:29.919Z,100409.41
2023-01-18T20:49:56.864Z,100412.63
2023-01-18T20:52:23.921Z,100411.16
2023-01-18T20:54:50.915Z,100409.00
2023-01-18T20:57:18.920Z,100406.66
2023-01-18T20:59:45.858Z,100412.63
2023-01-18T21:02:12.992Z,100421.97
2023-01-18T21:04:40.040Z,100417.44
2023-01-18T21:07:07.037Z,100409.66
2023-01-18T21:09:33.972Z,100417.09
2023-01-18T21:12:01.028Z,100410.72
2023-01-18T21:14:27.998Z,100411.03
2023-01-18T21:16:55.086Z,100422.81
2023-01-18T21:19:22.196Z,100420.91
2023-01-18T21:21:49.272Z,100412.19
2023-01-18T21:24:17.221Z,100414.03
2023-01-18T21:26:44.314Z,100408.56
2023-01-18T21:29:11.382Z,100415.59
2023-01-18T21:31:40.163Z,100414.03
2023-01-18T21:34:08.230Z,100413.16
2023-01-18T21:36:35.270Z,100402.72
2023-01-18T21:39:02.164Z,100382.66
2023-01-18T21:41:47.492Z,100393.50
2023-01-18T21:44:33.195Z,100397.09
2023-01-18T21:47:01.168Z,100407.94
2023-01-18T21:50:15.471Z,100415.16
2023-01-18T21:52:52.792Z,100411.97
2023-01-18T21:55:20.178Z,100402.19
2023-01-18T21:58:07.146Z,100405.03
2023-01-18T22:00:40.278Z,100415.56
2023-01-18T22:03:07.867Z,100427.44
2023-01-18T22:05:34.915Z,100429.53
2023-01-18T22:08:02.490Z,100434.31
2023-01-18T22:10:30.036Z,100443.50
2023-01-18T22:12:57.064Z,100441.38
2023-01-18T22:15:24.101Z,100439.50
2023-01-18T22:17:51.023Z,100436.06
2023-01-18T22:20:18.829Z,100446.34
2023-01-18T22:22:46.722Z,100434.56
2023-01-18T22:25:14.134Z,100434.97
2023-01-18T22:27:41.466Z,100447.28
2023-01-18T22:30:11.852Z,100458.28
2023-01-18T22:32:38.951Z,100462.66
2023-01-18T22:35:06.272Z,100463.97
2023-01-18T22:37:33.397Z,100478.22
2023-01-18T22:40:00.291Z,100485.22
2023-01-18T22:42:27.728Z,100481.63
2023-01-18T22:44:54.683Z,100482.56
2023-01-18T22:47:21.712Z,100474.59
2023-01-18T22:49:48.614Z,100492.22
2023-01-18T22:52:15.991Z,100487.13
2023-01-18T22:54:42.919Z,100512.34
2023-01-18T22:57:10.005Z,100518.63
2023-01-18T22:59:40.033Z,100525.03
2023-01-18T23:02:07.134Z,100535.75
2023-01-18T23:04:36.216Z,100550.41
2023-01-18T23:07:03.316Z,100546.66
2023-01-18T23:09:30.712Z,100550.34
2023-01-18T23:11:57.944Z,100562.56
2023-01-18T23:14:43.699Z,100568.03
2023-01-18T23:17:32.743Z,100577.91
2023-01-18T23:20:00.256Z,100582.66
2023-01-18T23:22:27.361Z,100578.56
2023-01-18T23:24:54.478Z,100583.00
2023-01-18T23:27:21.697Z,100585.09
2023-01-18T23:29:57.267Z,100589.47
2023-01-18T23:32:30.563Z,100587.34
2023-01-18T23:34:58.807Z,100583.91
2023-01-18T23:37:27.248Z,100595.66
2023-01-18T23:40:12.657Z,100593.19
2023-01-18T23:42:58.459Z,100607.38
2023-01-18T23:45:44.190Z,100614.69
2023-01-18T23:48:33.114Z,100617.50
2023-01-18T23:51:19.640Z,100606.03
2023-01-18T23:54:06.437Z,100608.78
2023-01-18T23:56:35.013Z,100613.25
2023-01-18T23:59:02.588Z,100605.28
